Time;durP1;ratioP1;P1;durP2;ratioP2;P2;SDS_P1;SDS_P2;PMS_P1;PMS_P2;Temp;Humidity;BMP_temperature;BMP_pressure;BME280_temperature;BME280_humidity;BME280_pressure;Samples;Min_cycle;Max_cycle;Signal;HPM_P1;HPM_P2
2021/09/08 00:00:19;;;;;;;2.60;2.03;;;;;;;6.39;64.14;99851.75;5072674;28;20055;-75
2021/09/08 00:02:45;;;;;;;3.30;2.30;;;;;;;6.37;64.08;99846.53;5054514;28;20135;-73
2021/09/08 00:05:11;;;;;;;3.25;1.95;;;;;;;6.34;64.32;99846.69;5071070;28;20132;-75
2021/09/08 00:07:37;;;;;;;3.15;2.50;;;;;;;6.24;64.46;99838.41;5072009;28;20032;-75
2021/09/08 00:10:04;;;;;;;2.97;2.25;;;;;;;6.29;64.09;99840.78;5071063;28;20056;-74
2021/09/08 00:12:30;;;;;;;5.43;2.55;;;;;;;6.31;63.93;99838.88;5037812;28;20052;-75
2021/09/08 00:14:56;;;;;;;5.20;2.30;;;;;;;6.32;63.78;99845.94;5058255;28;20047;-75
2021/09/08 00:17:22;;;;;;;2.92;2.28;;;;;;;6.33;63.54;99845.84;5041541;28;20182;-74
2021/09/08 00:19:48;;;;;;;3.60;2.17;;;;;;;6.25;63.85;99836.59;5058241;28;20075;-74
2021/09/08 00:22:14;;;;;;;2.97;2.22;;;;;;;6.20;63.94;99839.47;5058275;28;20077;-75
2021/09/08 00:24:39;;;;;;;2.38;2.17;;;;;;;6.28;63.63;99861.19;5058369;28;20132;-75
2021/09/08 00:27:13;;;;;;;3.78;2.30;;;;;;;6.23;63.42;99857.88;5059694;28;20044;-74
2021/09/08 00:29:39;;;;;;;2.35;2.15;;;;;;;6.24;63.45;99858.75;5058406;28;20521;-74
2021/09/08 00:32:06;;;;;;;3.33;2.28;;;;;;;6.21;63.69;99854.47;5076186;28;20044;-74
2021/09/08 00:34:33;;;;;;;4.53;2.40;;;;;;;6.18;63.61;99859.94;5074757;28;20121;-75
2021/09/08 00:37:01;;;;;;;4.40;2.38;;;;;;;6.15;63.67;99859.25;5076097;28;20036;-75
2021/09/08 00:39:28;;;;;;;2.92;2.40;;;;;;;5.88;64.85;99849.13;5075270;28;20127;-73
2021/09/08 00:41:54;;;;;;;2.80;2.40;;;;;;;5.96;64.60;99862.88;5074717;28;20139;-76
2021/09/08 00:44:20;;;;;;;2.55;2.33;;;;;;;5.85;65.16;99862.56;5058025;28;20143;-74
2021/09/08 00:46:46;;;;;;;3.63;2.10;;;;;;;5.82;64.89;99862.72;5074701;28;20053;-74
2021/09/08 00:49:13;;;;;;;3.28;2.38;;;;;;;5.78;65.17;99863.81;5076140;28;20052;-73
2021/09/08 00:51:41;;;;;;;2.92;2.38;;;;;;;5.64;65.24;99842.44;5058129;28;20411;-76
2021/09/08 00:54:12;;;;;;;4.20;2.50;;;;;;;5.57;65.36;99845.44;5041122;28;20052;-75
2021/09/08 00:56:40;;;;;;;5.18;2.30;;;;;;;5.57;65.71;99855.19;5040911;28;20441;-75
2021/09/08 00:59:06;;;;;;;5.75;2.38;;;;;;;5.54;65.48;99848.22;5074396;28;20092;-75
2021/09/08 01:01:33;;;;;;;3.40;2.72;;;;;;;5.57;65.41;99863.13;5079801;28;20036;-75
2021/09/08 01:04:01;;;;;;;2.30;2.10;;;;;;;5.59;65.51;99862.09;5061951;28;20048;-75
2021/09/08 01:06:29;;;;;;;5.75;2.40;;;;;;;5.54;65.20;99864.16;5095918;28;20411;-73
2021/09/08 01:08:55;;;;;;;2.70;2.45;;;;;;;5.43;66.40;99861.19;5061144;28;20043;-74
2021/09/08 01:11:21;;;;;;;3.47;2.50;;;;;;;5.38;66.43;99860.56;5044500;28;20509;-73
2021/09/08 01:13:48;;;;;;;2.92;2.40;;;;;;;5.37;66.84;99866.78;5061067;28;20043;-74
2021/09/08 01:16:15;;;;;;;4.90;2.83;;;;;;;5.34;66.71;99867.81;5094452;28;20136;-74
2021/09/08 01:18:45;;;;;;;3.97;2.42;;;;;;;5.31;66.91;99861.81;5044091;28;20126;-74
2021/09/08 01:21:10;;;;;;;4.15;2.35;;;;;;;5.37;66.92;99864.13;5060735;28;20047;-74
2021/09/08 01:23:37;;;;;;;2.92;2.25;;;;;;;5.33;67.23;99865.22;5077369;28;20135;-74
2021/09/08 01:26:03;;;;;;;2.25;2.13;;;;;;;5.20;67.08;99848.22;5077584;28;20623;-74
2021/09/08 01:28:29;;;;;;;2.53;2.22;;;;;;;5.20;68.14;99872.09;5095449;28;20039;-73
2021/09/08 01:30:56;;;;;;;2.58;2.38;;;;;;;5.08;68.49;99866.44;5094323;28;20052;-74
2021/09/08 01:33:22;;;;;;;2.60;2.40;;;;;;;5.17;67.80;99866.94;5060969;28;20131;-74
2021/09/08 01:35:48;;;;;;;3.47;2.53;;;;;;;5.16;67.37;99846.66;5061278;28;20048;-73
2021/09/08 01:38:14;;;;;;;4.53;2.30;;;;;;;5.27;66.94;99853.16;5094301;28;20150;-75
2021/09/08 01:40:40;;;;;;;7.57;2.20;;;;;;;5.35;67.15;99855.41;5078563;28;20514;-73
2021/09/08 01:43:06;;;;;;;2.40;2.20;;;;;;;5.39;67.37;99870.22;5061852;28;20036;-74
2021/09/08 01:45:32;;;;;;;3.67;2.45;;;;;;;5.49;66.95;99874.13;5069889;28;20044;-74
2021/09/08 01:47:58;;;;;;;5.25;2.38;;;;;;;5.45;67.22;99869.91;5060418;28;20105;-75
2021/09/08 01:50:24;;;;;;;3.22;2.38;;;;;;;5.40;66.79;99856.03;5028023;28;20046;-74
2021/09/08 01:52:50;;;;;;;11.98;2.72;;;;;;;5.48;66.66;99863.59;5030223;28;20452;-74
2021/09/08 01:55:16;;;;;;;3.10;2.70;;;;;;;5.56;66.17;99867.56;5066476;28;20085;-74
2021/09/08 01:57:42;;;;;;;2.85;2.42;;;;;;;5.66;66.05;99877.72;5098383;28;20060;-74
2021/09/08 02:00:09;;;;;;;2.50;2.30;;;;;;;5.64;66.16;99868.97;5079136;28;20097;-75
2021/09/08 02:02:41;;;;;;;2.72;2.53;;;;;;;5.68;65.93;99878.47;5061552;28;20107;-76
2021/09/08 02:05:08;;;;;;;7.47;2.80;;;;;;;5.71;65.72;99881.84;5059836;28;20150;-74
2021/09/08 02:07:34;;;;;;;2.22;2.05;;;;;;;5.73;65.68;99876.47;5045915;28;20036;-75
2021/09/08 02:10:01;;;;;;;3.13;2.30;;;;;;;5.80;65.29;99877.88;5073134;28;20048;-74
2021/09/08 02:12:26;;;;;;;3.85;2.53;;;;;;;5.83;65.24;99880.38;5039469;28;20500;-74
2021/09/08 02:14:52;;;;;;;3.13;2.40;;;;;;;5.89;65.21;99864.09;5072717;28;20058;-74
2021/09/08 02:17:18;;;;;;;3.60;2.55;;;;;;;5.88;65.44;99867.72;5022847;28;20040;-75
2021/09/08 02:19:44;;;;;;;7.00;2.40;;;;;;;5.99;65.16;99869.84;5072578;28;20117;-74
2021/09/08 02:22:10;;;;;;;5.13;2.88;;;;;;;6.16;64.86;99871.56;5055946;28;20066;-75
2021/09/08 02:24:36;;;;;;;20.48;2.75;;;;;;;6.23;64.68;99873.81;5039783;28;20052;-75
2021/09/08 02:27:02;;;;;;;4.93;2.67;;;;;;;6.28;64.45;99857.63;5065405;28;20452;-75
2021/09/08 02:29:28;;;;;;;5.93;2.60;;;;;;;6.47;64.26;99879.63;5075548;28;20047;-75
2021/09/08 02:31:54;;;;;;;4.40;2.50;;;;;;;6.55;63.81;99874.75;5042186;28;20059;-75
2021/09/08 02:34:20;;;;;;;6.50;2.85;;;;;;;6.56;63.55;99865.81;5093562;28;20149;-75
2021/09/08 02:36:46;;;;;;;8.60;3.03;;;;;;;6.72;63.35;99880.91;5074909;28;20068;-75
2021/09/08 02:39:11;;;;;;;19.95;3.10;;;;;;;6.74;63.01;99863.09;5075491;28;20540;-75
2021/09/08 02:41:37;;;;;;;17.88;3.05;;;;;;;6.91;62.76;99878.94;5079992;28;20136;-75
2021/09/08 02:44:03;;;;;;;13.35;3.17;;;;;;;6.93;62.06;99879.72;5072920;28;20040;-76
2021/09/08 02:46:29;;;;;;;8.05;3.08;;;;;;;6.93;62.23;99879.72;5055066;28;20341;-75
2021/09/08 02:48:56;;;;;;;5.82;3.38;;;;;;;6.88;62.00;99876.44;5073055;28;20055;-75
2021/09/08 02:51:21;;;;;;;6.93;2.92;;;;;;;6.93;62.17;99877.06;5055293;28;20040;-75
2021/09/08 02:53:47;;;;;;;5.97;3.53;;;;;;;6.95;61.88;99877.81;5071658;28;20051;-75
2021/09/08 02:56:13;;;;;;;10.65;3.83;;;;;;;6.92;61.86;99872.69;5054918;28;20122;-75
2021/09/08 02:58:39;;;;;;;9.35;2.90;;;;;;;6.95;61.77;99874.31;5021625;28;20048;-74
2021/09/08 03:01:05;;;;;;;2.92;2.67;;;;;;;6.88;61.62;99870.28;5072109;28;20505;-74
2021/09/08 03:03:31;;;;;;;8.35;3.53;;;;;;;6.90;61.41;99885.19;5054865;28;20131;-75
2021/09/08 03:05:57;;;;;;;13.40;3.15;;;;;;;6.91;61.38;99880.75;5055010;28;20376;-75
2021/09/08 03:08:23;;;;;;;7.85;3.40;;;;;;;6.82;61.46;99867.03;5038956;28;20055;-75
2021/09/08 03:10:49;;;;;;;5.38;3.42;;;;;;;6.88;61.59;99873.78;5038495;28;20036;-75
2021/09/08 03:13:16;;;;;;;6.22;3.50;;;;;;;6.97;61.47;99883.06;5054633;28;20503;-76
2021/09/08 03:15:42;;;;;;;12.13;3.55;;;;;;;7.00;61.43;99889.06;5022070;28;20043;-74
2021/09/08 03:18:08;;;;;;;11.52;3.72;;;;;;;6.95;61.42;99872.50;5022239;28;20044;-75
2021/09/08 03:20:34;;;;;;;8.13;3.95;;;;;;;7.02;61.73;99884.50;5038474;28;20105;-75
2021/09/08 03:23:00;;;;;;;6.78;3.65;;;;;;;7.13;61.47;99881.22;5038060;28;20434;-74
2021/09/08 03:25:27;;;;;;;7.22;3.47;;;;;;;7.19;61.17;99883.56;5037910;28;20055;-74
2021/09/08 03:27:53;;;;;;;10.75;4.22;;;;;;;7.21;61.14;99872.81;5038026;28;20044;-75
2021/09/08 03:30:19;;;;;;;7.50;3.80;;;;;;;7.33;61.10;99882.72;5054843;28;20056;-74
2021/09/08 03:32:44;;;;;;;6.72;3.70;;;;;;;7.37;61.11;99884.31;5037780;28;20424;-74
2021/09/08 03:35:10;;;;;;;12.07;4.47;;;;;;;7.38;61.08;99866.53;5069449;28;20107;-77
2021/09/08 03:37:36;;;;;;;6.95;3.45;;;;;;;7.58;60.69;99876.84;5019190;28;20578;-75
2021/09/08 03:40:03;;;;;;;7.15;4.32;;;;;;;7.67;60.74;99872.78;5051900;28;20087;-76
2021/09/08 03:42:30;;;;;;;8.02;3.65;;;;;;;7.64;60.32;99855.22;5019537;28;20052;-76
2021/09/08 03:44:56;;;;;;;12.25;3.95;;;;;;;7.70;60.64;99872.59;5052117;28;20040;-75
2021/09/08 03:47:21;;;;;;;11.93;3.70;;;;;;;7.84;60.59;99875.28;5068734;28;20175;-74
2021/09/08 03:49:47;;;;;;;6.70;3.92;;;;;;;7.92;60.30;99872.16;5069281;28;20127;-74
2021/09/08 03:52:13;;;;;;;6.82;3.22;;;;;;;7.94;60.19;99876.47;5070892;28;20072;-74
2021/09/08 03:54:39;;;;;;;5.25;3.22;;;;;;;8.01;60.28;99871.59;5054479;28;20060;-75
2021/09/08 03:57:06;;;;;;;8.38;3.55;;;;;;;8.11;60.34;99874.56;5072089;28;20160;-76
2021/09/08 03:59:32;;;;;;;5.78;3.28;;;;;;;8.12;59.86;99877.13;5091245;28;20056;-74
2021/09/08 04:01:58;;;;;;;6.00;3.22;;;;;;;8.12;60.33;99877.13;5056444;28;20059;-74
2021/09/08 04:04:25;;;;;;;4.88;3.28;;;;;;;8.22;59.96;99872.94;5072425;28;20110;-76
2021/09/08 04:06:51;;;;;;;4.78;3.33;;;;;;;8.35;60.17;99873.06;5058416;28;20461;-74
2021/09/08 04:09:16;;;;;;;4.32;3.05;;;;;;;8.41;59.83;99872.69;5070992;28;20149;-76
2021/09/08 04:11:43;;;;;;;5.90;3.00;;;;;;;8.45;59.88;99870.69;5054214;28;20071;-76
2021/09/08 04:14:09;;;;;;;5.50;3.65;;;;;;;8.49;60.02;99865.06;5038016;28;20407;-75
2021/09/08 04:16:35;;;;;;;5.03;3.30;;;;;;;8.63;59.78;99868.69;5054371;28;20047;-75
2021/09/08 04:19:01;;;;;;;10.15;3.42;;;;;;;8.76;59.62;99866.94;5056699;28;20040;-74
2021/09/08 04:21:27;;;;;;;6.15;3.15;;;;;;;8.80;59.72;99857.81;5078227;28;20070;-75
2021/09/08 04:23:53;;;;;;;6.30;3.40;;;;;;;9.00;59.56;99869.84;5070966;28;20194;-76
2021/09/08 04:26:19;;;;;;;4.78;2.80;;;;;;;9.15;59.26;99867.97;5053866;28;20071;-76
2021/09/08 04:28:45;;;;;;;4.05;2.97;;;;;;;9.32;58.70;99862.38;5037822;28;20041;-75
2021/09/08 04:31:11;;;;;;;5.18;2.95;;;;;;;9.35;58.80;99872.84;5053667;28;20133;-75
2021/09/08 04:33:37;;;;;;;4.40;3.30;;;;;;;9.41;58.77;99872.44;5053834;28;20068;-74
2021/09/08 04:36:03;;;;;;;5.18;2.90;;;;;;;9.52;58.49;99870.88;5055027;28;20083;-75
2021/09/08 04:38:29;;;;;;;5.90;3.53;;;;;;;9.59;58.39;99857.00;5091776;28;20527;-75
2021/09/08 04:40:56;;;;;;;5.10;3.20;;;;;;;9.74;58.40;99865.75;5056625;28;20127;-75
2021/09/08 04:43:22;;;;;;;7.30;2.83;;;;;;;9.90;58.33;99858.44;5091719;28;20130;-75
2021/09/08 04:45:47;;;;;;;6.45;3.00;;;;;;;10.06;57.95;99860.03;5090386;28;20140;-75
2021/09/08 04:48:13;;;;;;;10.90;3.40;;;;;;;10.25;57.79;99855.13;5082012;28;20049;-74
2021/09/08 04:50:39;;;;;;;5.90;3.35;;;;;;;10.37;57.37;99853.41;5069740;28;20499;-73
2021/09/08 04:53:06;;;;;;;5.25;3.40;;;;;;;10.64;56.85;99861.28;5069999;28;20044;-75
2021/09/08 04:55:32;;;;;;;6.15;2.95;;;;;;;10.78;56.28;99858.47;5052895;28;20051;-75
2021/09/08 04:57:58;;;;;;;9.13;2.85;;;;;;;10.91;56.02;99859.28;5036834;28;20048;-76
2021/09/08 05:00:23;;;;;;;3.55;2.60;;;;;;;10.99;55.28;99856.06;5072837;28;20044;-75
2021/09/08 05:02:49;;;;;;;7.55;3.03;;;;;;;11.11;54.66;99851.63;5040601;28;20040;-76
2021/09/08 05:05:15;;;;;;;5.50;2.97;;;;;;;11.27;54.52;99841.47;5056310;28;20044;-75
2021/09/08 05:07:41;;;;;;;3.65;2.72;;;;;;;11.58;54.17;99855.22;5057181;28;20101;-75
2021/09/08 05:10:07;;;;;;;4.10;2.67;;;;;;;11.69;53.58;99841.84;5073355;28;20052;-77
2021/09/08 05:12:33;;;;;;;6.93;2.90;;;;;;;11.89;53.12;99849.25;5073402;28;20508;-74
2021/09/08 05:15:00;;;;;;;4.65;2.88;;;;;;;11.95;52.09;99849.75;5073794;28;20046;-73
2021/09/08 05:17:26;;;;;;;4.18;2.40;;;;;;;11.89;52.17;99835.00;5073510;28;20041;-75
2021/09/08 05:19:52;;;;;;;3.28;2.63;;;;;;;11.97;51.70;99842.44;5073169;28;20052;-76
2021/09/08 05:22:18;;;;;;;3.38;2.55;;;;;;;12.09;52.10;99830.75;5057022;28;20042;-74
2021/09/08 05:24:44;;;;;;;9.63;2.53;;;;;;;12.35;51.52;99837.59;5056627;28;20555;-74
2021/09/08 05:27:10;;;;;;;3.33;2.40;;;;;;;12.48;50.05;99844.66;5039949;28;20222;-75
2021/09/08 05:29:36;;;;;;;5.60;2.50;;;;;;;12.52;50.19;99832.72;5074460;28;20106;-75
2021/09/08 05:32:02;;;;;;;6.13;2.42;;;;;;;12.57;49.24;99830.53;5023456;28;20067;-78
2021/09/08 05:34:28;;;;;;;3.80;2.30;;;;;;;12.74;48.41;99837.19;5055771;28;20052;-75
2021/09/08 05:36:54;;;;;;;3.85;2.20;;;;;;;12.82;48.01;99851.69;5056384;28;20098;-77
2021/09/08 05:39:20;;;;;;;5.70;2.13;;;;;;;12.88;48.10;99831.56;5072587;28;20056;-75
2021/09/08 05:41:45;;;;;;;5.28;2.30;;;;;;;13.07;46.99;99825.53;5073096;28;20103;-75
2021/09/08 05:44:11;;;;;;;2.70;1.90;;;;;;;13.12;47.25;99826.84;5073249;28;20129;-74
2021/09/08 05:46:38;;;;;;;9.27;2.38;;;;;;;13.25;47.81;99821.34;5073229;28;20074;-76
2021/09/08 05:49:03;;;;;;;3.60;2.30;;;;;;;13.54;47.00;99820.72;5072545;28;20041;-74
2021/09/08 05:51:29;;;;;;;4.80;2.30;;;;;;;13.59;46.23;99823.88;5056183;28;20555;-75
2021/09/08 05:53:55;;;;;;;8.38;2.40;;;;;;;13.34;44.59;99820.56;5056118;28;20037;-75
2021/09/08 05:56:21;;;;;;;6.35;2.05;;;;;;;13.35;45.01;99843.78;5023040;28;20047;-76
2021/09/08 05:58:47;;;;;;;6.15;1.60;;;;;;;13.47;43.45;99824.94;5072730;28;20071;-75
2021/09/08 06:01:13;;;;;;;6.55;2.00;;;;;;;13.46;43.77;99828.56;5072485;28;20044;-75
2021/09/08 06:03:39;;;;;;;2.63;2.03;;;;;;;13.47;43.99;99827.63;5055565;28;20051;-73
2021/09/08 06:06:05;;;;;;;3.70;1.80;;;;;;;13.57;44.57;99810.56;5073919;28;20139;-74
2021/09/08 06:08:31;;;;;;;7.25;2.20;;;;;;;13.84;43.75;99828.88;5072334;28;20044;-77
2021/09/08 06:10:57;;;;;;;4.93;1.60;;;;;;;13.94;42.70;99809.25;5038437;28;20495;-78
2021/09/08 06:13:23;;;;;;;8.30;1.92;;;;;;;14.02;42.88;99793.31;5072266;28;20056;-74
2021/09/08 06:15:49;;;;;;;3.00;1.90;;;;;;;14.04;41.74;99819.09;5072535;28;20428;-73
2021/09/08 06:18:15;;;;;;;4.03;2.10;;;;;;;14.21;41.38;99809.53;5072043;28;20533;-75
2021/09/08 06:20:41;;;;;;;5.10;1.95;;;;;;;14.14;41.61;99813.78;5055783;28;20076;-73
2021/09/08 06:23:07;;;;;;;3.75;1.65;;;;;;;14.28;41.58;99809.84;5055350;28;20049;-75
2021/09/08 06:25:33;;;;;;;11.27;1.73;;;;;;;14.32;41.39;99804.06;5055277;28;20044;-74
2021/09/08 06:27:59;;;;;;;4.70;2.30;;;;;;;14.51;41.13;99792.56;5072320;28;20454;-74
2021/09/08 06:30:25;;;;;;;2.63;1.90;;;;;;;14.75;40.22;99807.50;5055609;28;20040;-75
2021/09/08 06:32:51;;;;;;;4.90;1.85;;;;;;;14.28;40.51;99796.41;5071659;28;20044;-73
2021/09/08 06:35:17;;;;;;;5.50;1.83;;;;;;;14.31;40.62;99793.44;5073107;28;20046;-78
2021/09/08 06:37:43;;;;;;;5.78;1.60;;;;;;;14.45;40.56;99808.38;5055210;28;20131;-79
2021/09/08 06:40:10;;;;;;;8.63;2.35;;;;;;;14.58;40.16;99812.53;5073115;28;20040;-75
2021/09/08 06:42:36;;;;;;;5.78;1.92;;;;;;;14.77;39.09;99809.06;5071721;28;20511;-76
2021/09/08 06:45:02;;;;;;;9.45;1.70;;;;;;;14.68;38.24;99809.88;5073280;28;20086;-77
2021/09/08 06:47:28;;;;;;;6.47;1.65;;;;;;;14.69;39.28;99802.66;5071110;28;20450;-78
2021/09/08 06:49:54;;;;;;;2.53;1.77;;;;;;;14.61;38.63;99814.13;5071489;28;20040;-77
2021/09/08 06:52:20;;;;;;;4.03;1.73;;;;;;;14.47;39.42;99782.19;5054798;28;20132;-77
2021/09/08 06:54:46;;;;;;;3.50;1.50;;;;;;;14.57;38.69;99810.84;5054788;28;20396;-76
2021/09/08 06:57:13;;;;;;;6.00;1.98;;;;;;;14.42;39.10;99797.88;5054946;28;20040;-80
2021/09/08 06:59:40;;;;;;;1.48;1.27;;;;;;;14.15;37.71;99796.66;5039022;28;20044;-79
2021/09/08 07:02:07;;;;;;;3.30;1.02;;;;;;;14.50;37.28;99808.84;5038449;28;20135;-75
2021/09/08 07:04:33;;;;;;;3.63;1.30;;;;;;;14.28;37.06;99807.16;5072463;28;20136;-77
2021/09/08 07:06:59;;;;;;;11.98;1.55;;;;;;;14.06;38.07;99816.25;5021621;28;20101;-76
2021/09/08 07:09:25;;;;;;;3.42;1.73;;;;;;;14.15;38.35;99799.34;5072410;28;20049;-75
2021/09/08 07:11:51;;;;;;;5.50;2.13;;;;;;;14.14;38.15;99819.16;5071356;28;20064;-75
2021/09/08 07:14:16;;;;;;;2.28;1.55;;;;;;;14.23;37.33;99818.31;5054801;28;20094;-75
2021/09/08 07:16:42;;;;;;;1.55;1.40;;;;;;;14.44;36.86;99810.22;5071253;28;20127;-76
2021/09/08 07:19:08;;;;;;;6.15;1.50;;;;;;;14.58;36.78;99801.78;5021222;28;20131;-76
2021/09/08 07:21:34;;;;;;;6.60;1.98;;;;;;;14.91;36.96;99796.19;5070716;28;20040;-77
2021/09/08 07:24:00;;;;;;;4.03;1.50;;;;;;;14.92;37.00;99814.88;5037649;28;20097;-76
2021/09/08 07:26:32;;;;;;;3.28;1.50;;;;;;;15.21;36.86;99776.38;5054797;28;20105;-75
2021/09/08 07:29:01;;;;;;;4.97;1.90;;;;;;;15.27;36.40;99768.59;5071269;28;20051;-76
2021/09/08 07:31:27;;;;;;;1.73;1.40;;;;;;;15.30;35.66;99811.38;5054302;28;20051;-74
2021/09/08 07:33:54;;;;;;;2.40;1.05;;;;;;;14.93;35.64;99788.81;5037354;28;20044;-75
2021/09/08 07:36:20;;;;;;;5.43;2.00;;;;;;;15.02;36.01;99814.91;5054681;28;20040;-75
2021/09/08 07:38:46;;;;;;;4.30;1.60;;;;;;;15.17;35.95;99781.19;5054626;28;20068;-75
2021/09/08 07:41:13;;;;;;;1.40;1.30;;;;;;;15.23;35.15;99791.41;5054804;28;20055;-74
2021/09/08 07:43:39;;;;;;;1.77;1.40;;;;;;;15.06;35.30;99800.19;5054202;28;20084;-74
2021/09/08 07:46:05;;;;;;;3.13;1.30;;;;;;;15.16;35.72;99794.81;5072435;28;20048;-76
2021/09/08 07:48:31;;;;;;;4.72;1.33;;;;;;;15.26;35.49;99769.56;5053926;28;20056;-75
2021/09/08 07:50:57;;;;;;;6.03;1.30;;;;;;;15.11;35.34;99805.97;5070881;28;20080;-75
2021/09/08 07:53:23;;;;;;;7.85;1.77;;;;;;;14.94;36.39;99779.78;5037417;28;20638;-74
2021/09/08 07:55:49;;;;;;;2.90;1.70;;;;;;;15.23;36.30;99780.66;5053962;28;20127;-77
2021/09/08 07:58:15;;;;;;;4.65;1.25;;;;;;;15.36;35.84;99774.13;5061118;28;20048;-75
2021/09/08 08:00:40;;;;;;;2.10;1.42;;;;;;;15.45;35.56;99776.78;5075798;28;20047;-75
2021/09/08 08:03:06;;;;;;;5.25;2.10;;;;;;;15.51;35.47;99789.69;5053389;28;20410;-76
2021/09/08 08:05:32;;;;;;;1.27;1.17;;;;;;;15.52;34.90;99786.00;5037105;28;20076;-76
2021/09/08 08:07:58;;;;;;;5.32;2.08;;;;;;;15.55;35.07;99779.47;5054500;28;20059;-76
2021/09/08 08:10:25;;;;;;;3.58;1.17;;;;;;;15.39;34.69;99779.22;5054032;28;20048;-76
2021/09/08 08:12:51;;;;;;;7.28;1.67;;;;;;;15.79;34.84;99761.00;5071893;28;20575;-74
2021/09/08 08:15:17;;;;;;;4.70;1.38;;;;;;;16.12;34.68;99774.13;5053715;28;20080;-76
2021/09/08 08:17:43;;;;;;;4.22;1.50;;;;;;;16.13;34.34;99762.31;5071185;28;20050;-75
2021/09/08 08:20:10;;;;;;;1.73;1.10;;;;;;;15.75;33.75;99785.72;5070769;28;20052;-76
2021/09/08 08:22:37;;;;;;;2.35;1.50;;;;;;;16.03;34.65;99774.00;5082674;28;20028;-75
2021/09/08 08:25:04;;;;;;;1.20;1.10;;;;;;;15.67;34.39;99783.72;5054287;28;20574;-76
2021/09/08 08:27:30;;;;;;;2.45;1.20;;;;;;;15.36;35.25;99760.66;5037194;28;20037;-77
2021/09/08 08:29:56;;;;;;;2.22;1.58;;;;;;;15.50;35.53;99762.91;5070913;28;20135;-76
2021/09/08 08:32:23;;;;;;;1.92;1.63;;;;;;;15.98;34.37;99753.84;5058288;28;20427;-77
2021/09/08 08:34:50;;;;;;;1.73;1.40;;;;;;;16.31;34.52;99759.69;5048201;28;20518;-78
2021/09/08 08:37:16;;;;;;;5.80;1.30;;;;;;;16.55;33.54;99776.19;5040469;28;20033;-77
2021/09/08 08:39:42;;;;;;;1.75;1.20;;;;;;;16.06;34.20;99762.09;5024148;28;20139;-77
2021/09/08 08:42:13;;;;;;;5.00;1.75;;;;;;;16.34;34.34;99744.06;5073490;28;20135;-76
2021/09/08 08:44:40;;;;;;;2.28;1.30;;;;;;;16.68;33.49;99746.13;5074451;28;20040;-76
2021/09/08 08:47:06;;;;;;;4.80;1.20;;;;;;;16.68;33.95;99760.47;5058440;28;20145;-76
2021/09/08 08:49:32;;;;;;;2.22;1.40;;;;;;;16.59;34.34;99747.91;5074523;28;20052;-76
2021/09/08 08:51:58;;;;;;;4.38;1.50;;;;;;;16.63;34.67;99757.41;5057950;28;20070;-77
2021/09/08 08:54:24;;;;;;;4.43;1.60;;;;;;;16.59;35.00;99712.81;5041409;28;20048;-77
2021/09/08 08:56:53;;;;;;;1.90;1.50;;;;;;;16.72;34.67;99729.47;5076203;28;20087;-78
2021/09/08 08:59:19;;;;;;;1.95;1.52;;;;;;;16.84;34.84;99726.59;5075622;28;20060;-77
2021/09/08 09:01:46;;;;;;;2.28;1.30;;;;;;;16.96;34.78;99718.13;5084720;28;20055;-76
2021/09/08 09:04:15;;;;;;;1.90;1.20;;;;;;;17.37;34.09;99701.38;5075658;28;20090;-79
2021/09/08 09:06:42;;;;;;;2.15;1.30;;;;;;;17.57;33.97;99700.19;5058010;28;20059;-75
2021/09/08 09:09:12;;;;;;;1.80;1.50;;;;;;;17.77;33.92;99703.56;5073570;28;20056;-76
2021/09/08 09:11:39;;;;;;;2.22;1.30;;;;;;;18.29;33.66;99710.75;5074019;28;20444;-76
2021/09/08 09:14:07;;;;;;;2.25;1.17;;;;;;;18.56;32.14;99705.06;5057317;28;20070;-75
2021/09/08 09:16:35;;;;;;;3.20;1.10;;;;;;;18.13;33.13;99706.97;5040851;28;20082;-76
2021/09/08 09:19:01;;;;;;;1.58;1.20;;;;;;;18.19;32.83;99733.34;5057926;28;20449;-76
2021/09/08 09:21:27;;;;;;;1.55;1.45;;;;;;;18.35;33.16;99710.06;5073838;28;20048;-76
2021/09/08 09:23:57;;;;;;;2.22;1.33;;;;;;;18.56;32.75;99707.78;5073931;28;20130;-77
2021/09/08 09:26:26;;;;;;;1.98;1.25;;;;;;;18.31;32.86;99700.59;5073845;28;20056;-77
2021/09/08 09:28:52;;;;;;;4.95;1.38;;;;;;;18.35;32.84;99691.13;5057070;28;20044;-76
2021/09/08 09:31:23;;;;;;;3.05;0.93;;;;;;;18.12;33.38;99716.06;5047338;28;20555;-76
2021/09/08 09:33:58;;;;;;;4.10;1.30;;;;;;;17.69;34.03;99711.59;5041119;28;20068;-76
2021/09/08 09:36:30;;;;;;;1.30;1.20;;;;;;;17.71;34.22;99699.63;5040915;28;20048;-76
2021/09/08 09:38:56;;;;;;;3.08;1.58;;;;;;;17.92;34.13;99704.66;5057058;28;20040;-76
2021/09/08 09:41:32;;;;;;;3.38;1.27;;;;;;;17.95;33.55;99689.97;5040484;28;20044;-75
2021/09/08 09:44:07;;;;;;;4.25;1.20;;;;;;;18.00;33.82;99705.69;5057277;28;20037;-75
2021/09/08 09:46:33;;;;;;;2.83;1.50;;;;;;;17.98;33.48;99705.00;5024001;28;20102;-75
2021/09/08 09:49:02;;;;;;;1.65;1.10;;;;;;;17.80;33.67;99699.69;5057175;28;20048;-75
2021/09/08 09:51:28;;;;;;;4.82;1.55;;;;;;;18.06;33.89;99696.94;5073557;28;20411;-76
2021/09/08 09:53:54;;;;;;;2.08;1.20;;;;;;;18.47;33.45;99692.53;5040168;28;20050;-75
2021/09/08 09:56:20;;;;;;;2.47;1.23;;;;;;;18.33;33.15;99704.00;5074520;28;20138;-75
2021/09/08 09:58:46;;;;;;;2.72;1.25;;;;;;;17.90;33.22;99695.88;5056176;28;20071;-75
2021/09/08 10:01:11;;;;;;;1.40;1.30;;;;;;;17.79;33.85;99676.34;5041719;28;20048;-74
2021/09/08 10:03:37;;;;;;;4.03;1.42;;;;;;;17.35;34.93;99689.91;5049206;28;20089;-75
2021/09/08 10:06:03;;;;;;;8.02;1.60;;;;;;;17.05;35.46;99700.13;5057195;28;20139;-75
2021/09/08 10:08:31;;;;;;;3.33;1.20;;;;;;;16.93;35.60;99690.56;5039718;28;20076;-75
2021/09/08 10:11:01;;;;;;;3.08;1.40;;;;;;;16.98;36.03;99693.66;5040007;28;20066;-75
2021/09/08 10:13:28;;;;;;;3.00;1.40;;;;;;;17.08;35.77;99694.41;5039901;28;20067;-76
2021/09/08 10:15:54;;;;;;;3.42;1.50;;;;;;;17.01;36.06;99693.34;5055954;28;20048;-74
2021/09/08 10:18:28;;;;;;;5.40;1.60;;;;;;;16.91;35.92;99689.88;5072897;28;20499;-75
2021/09/08 10:21:14;;;;;;;1.52;1.42;;;;;;;16.91;35.95;99674.50;5056935;28;20040;-75
2021/09/08 10:23:44;;;;;;;4.22;1.70;;;;;;;17.29;35.79;99701.31;5073216;28;20071;-75
2021/09/08 10:26:17;;;;;;;7.38;1.60;;;;;;;17.01;35.94;99695.19;5056207;28;20396;-76
2021/09/08 10:28:45;;;;;;;5.07;1.50;;;;;;;16.87;36.36;99691.19;5072668;28;20385;-75
2021/09/08 10:31:11;;;;;;;1.55;1.40;;;;;;;16.49;37.24;99774.09;5039227;28;20180;-74
2021/09/08 10:33:38;;;;;;;1.73;1.40;;;;;;;16.43;37.47;99699.13;5059348;28;20130;-75
2021/09/08 10:36:04;;;;;;;5.00;1.75;;;;;;;16.24;37.79;99684.75;5063643;28;20458;-74
2021/09/08 10:38:31;;;;;;;3.08;1.80;;;;;;;16.14;38.31;99683.97;5073559;28;20055;-75
2021/09/08 10:40:57;;;;;;;8.48;1.90;;;;;;;16.20;38.32;99682.50;5055860;28;20098;-75
2021/09/08 10:43:41;;;;;;;7.72;2.42;;;;;;;16.36;38.23;99687.25;5072033;28;20048;-75
2021/09/08 10:46:08;;;;;;;2.30;1.58;;;;;;;16.29;38.04;99680.78;5056022;28;20048;-76
2021/09/08 10:48:44;;;;;;;5.07;1.85;;;;;;;16.20;38.09;99704.94;5072433;28;20502;-76
2021/09/08 10:51:18;;;;;;;3.85;1.50;;;;;;;16.11;37.75;99684.28;5055599;28;20056;-75
2021/09/08 10:53:44;;;;;;;1.20;1.10;;;;;;;16.16;37.39;99681.97;5072030;28;20041;-76
2021/09/08 10:56:10;;;;;;;2.95;1.42;;;;;;;16.16;37.61;99690.06;5055661;28;20098;-75
2021/09/08 10:58:56;;;;;;;4.65;1.80;;;;;;;16.27;37.30;99687.16;5071618;28;20095;-75
2021/09/08 11:01:23;;;;;;;3.30;1.88;;;;;;;16.31;37.43;99678.75;5055615;28;20043;-75
2021/09/08 11:03:49;;;;;;;3.72;1.58;;;;;;;16.51;37.38;99667.72;5055319;28;20048;-75
2021/09/08 11:06:15;;;;;;;5.80;1.80;;;;;;;16.83;36.77;99692.50;5066265;28;20044;-75
2021/09/08 11:08:44;;;;;;;3.78;1.60;;;;;;;16.65;36.77;99666.31;5055481;28;20106;-74
2021/09/08 11:11:12;;;;;;;4.30;1.80;;;;;;;16.92;36.67;99680.75;5071950;28;20127;-75
2021/09/08 11:13:38;;;;;;;1.50;1.40;;;;;;;16.64;36.47;99686.22;5073061;28;20102;-74
2021/09/08 11:16:22;;;;;;;2.40;1.70;;;;;;;16.62;36.91;99682.81;5071873;28;20040;-75
2021/09/08 11:18:48;;;;;;;5.93;1.83;;;;;;;16.27;37.64;99667.44;5038642;28;20445;-76
2021/09/08 11:21:16;;;;;;;5.35;1.50;;;;;;;16.11;38.17;99684.28;5071970;28;20048;-75
2021/09/08 11:23:42;;;;;;;2.88;1.50;;;;;;;16.06;38.91;99691.97;5071790;28;20123;-77
2021/09/08 11:26:09;;;;;;;1.90;1.48;;;;;;;15.95;39.23;99676.00;5072029;28;20044;-75
2021/09/08 11:28:36;;;;;;;2.50;1.50;;;;;;;15.85;39.49;99702.13;5055360;28;20519;-75
2021/09/08 11:31:16;;;;;;;3.33;1.60;;;;;;;15.64;40.56;99683.44;5071797;28;20048;-75
2021/09/08 11:33:42;;;;;;;1.38;1.27;;;;;;;15.47;40.76;99701.22;5038274;28;20040;-75